Time;durP1;ratioP1;P1;durP2;ratioP2;P2;SDS_P1;SDS_P2;PMS_P1;PMS_P2;Temp;Humidity;BMP_temperature;BMP_pressure;BME280_temperature;BME280_humidity;BME280_pressure;Samples;Min_cycle;Max_cycle;Signal;HPM_P1;HPM_P2
2023/06/21 00:11:30;;;;;;;13.17;10.67;;;;;;;21.00;58.80;99911.00;30493273;28;98587;-70
2023/06/21 00:26:30;;;;;;;15.17;11.20;;;;;;;20.63;60.40;99907.63;30489144;28;97578;-71
2023/06/21 00:41:31;;;;;;;16.27;11.90;;;;;;;20.33;61.79;99907.09;30504987;28;113810;-69
2023/06/21 00:56:35;;;;;;;13.50;12.10;;;;;;;20.15;62.94;99908.94;30503716;28;108355;-69
2023/06/21 01:11:50;;;;;;;13.67;11.73;;;;;;;20.03;64.09;99891.91;30501773;28;97074;-69
2023/06/21 01:27:08;;;;;;;14.70;12.97;;;;;;;19.97;64.80;99893.72;30500360;28;96854;-71
2023/06/21 01:42:09;;;;;;;16.03;13.27;;;;;;;19.87;65.35;99891.59;30500161;28;96758;-69
2023/06/21 01:57:10;;;;;;;15.97;13.17;;;;;;;19.74;66.05;99887.25;30497603;28;111787;-69
2023/06/21 02:12:11;;;;;;;15.70;13.93;;;;;;;19.67;66.24;99896.53;30496015;28;96648;-71
2023/06/21 02:27:11;;;;;;;18.00;13.85;;;;;;;19.60;66.64;99889.41;30496339;28;96653;-71
2023/06/21 02:42:12;;;;;;;17.50;13.45;;;;;;;19.53;67.00;99904.91;30494229;28;96769;-72
2023/06/21 02:57:12;;;;;;;16.52;13.20;;;;;;;19.54;67.30;99898.44;30492671;28;96655;-72
2023/06/21 03:12:12;;;;;;;13.80;12.40;;;;;;;19.57;67.42;99922.31;30489916;28;96751;-71
2023/06/21 03:27:13;;;;;;;17.83;13.23;;;;;;;19.65;67.53;99933.81;30488217;28;103829;-69
2023/06/21 03:42:14;;;;;;;18.33;12.03;;;;;;;19.84;67.46;99945.31;30487877;28;96911;-69
2023/06/21 03:57:14;;;;;;;16.63;13.07;;;;;;;20.04;67.13;99937.63;30507524;28;96830;-70
2023/06/21 04:12:15;;;;;;;18.53;13.00;;;;;;;20.23;66.95;99896.88;30506052;28;106377;-69
2023/06/21 04:27:16;;;;;;;16.57;12.53;;;;;;;20.50;66.49;99893.59;30502609;28;97166;-70
2023/06/21 04:42:20;;;;;;;15.83;12.80;;;;;;;21.05;65.87;99908.34;30500004;28;96774;-70
2023/06/21 04:57:20;;;;;;;15.97;11.90;;;;;;;21.75;64.77;99909.66;30499847;28;96738;-71
2023/06/21 05:12:21;;;;;;;20.03;12.13;;;;;;;21.85;63.40;99922.53;30446907;28;97388;-67
2023/06/21 05:27:21;;;;;;;15.77;12.43;;;;;;;21.72;63.57;99966.28;30489183;28;98395;-67
2023/06/21 05:42:21;;;;;;;14.43;12.03;;;;;;;21.61;64.25;100004.09;30503044;28;97420;-69
2023/06/21 05:57:24;;;;;;;22.63;11.87;;;;;;;21.64;64.78;99998.16;30497678;28;105718;-70
2023/06/21 06:12:24;;;;;;;13.90;12.17;;;;;;;21.71;64.64;99981.72;30495955;28;96753;-68
2023/06/21 06:27:24;;;;;;;13.63;12.20;;;;;;;21.66;65.22;100005.22;30490369;28;97236;-69
2023/06/21 06:42:25;;;;;;;20.60;12.53;;;;;;;21.67;66.18;99996.03;30496091;28;96719;-71
2023/06/21 06:57:25;;;;;;;16.88;12.80;;;;;;;21.89;67.11;100001.50;30489879;28;96738;-71
2023/06/21 07:12:26;;;;;;;19.63;14.02;;;;;;;22.35;66.94;100039.28;30489750;28;111205;-69
2023/06/21 07:27:27;;;;;;;23.52;14.57;;;;;;;22.47;67.92;100080.69;30503860;28;96796;-70
2023/06/21 07:42:27;;;;;;;20.60;15.10;;;;;;;22.31;69.15;100077.75;30508894;28;96892;-71
2023/06/21 07:57:28;;;;;;;;;;;;;;;22.40;69.99;100082.75;30507576;28;99952;-70
2023/06/21 08:12:28;;;;;;;18.03;15.57;;;;;;;23.78;69.34;100088.00;30508070;28;96902;-72
2023/06/21 08:27:28;;;;;;;16.65;13.70;;;;;;;24.66;68.52;100103.00;30504589;28;97337;-71
2023/06/21 08:42:29;;;;;;;15.30;11.93;;;;;;;27.39;65.80;100116.31;30507625;28;97433;-70
2023/06/21 08:57:37;;;;;;;13.57;9.80;;;;;;;29.09;62.42;100119.22;30505728;28;97115;-71
2023/06/21 09:12:37;;;;;;;;;;;;;;;30.36;57.02;100123.72;30507440;28;96759;-70
2023/06/21 09:27:38;;;;;;;10.70;9.00;;;;;;;30.77;53.43;100135.84;30501799;28;97243;-71
2023/06/21 09:42:39;;;;;;;9.48;8.50;;;;;;;31.52;50.31;100121.78;30496624;28;97412;-71
2023/06/21 09:57:40;;;;;;;8.00;7.27;;;;;;;32.78;46.75;100122.59;30499052;28;97439;-74
2023/06/21 10:12:54;;;;;;;10.98;7.85;;;;;;;33.12;44.49;100120.19;30499590;28;97234;-69
2023/06/21 10:27:58;;;;;;;8.20;7.17;;;;;;;33.17;41.52;100122.78;30497949;28;96745;-71
2023/06/21 10:42:59;;;;;;;10.07;8.07;;;;;;;33.98;40.97;100110.22;30496228;28;97340;-70
2023/06/21 10:58:00;;;;;;;9.25;6.75;;;;;;;34.15;38.14;100094.72;30490225;28;97216;-66
2023/06/21 11:13:01;;;;;;;10.07;7.20;;;;;;;35.03;37.05;100087.50;30487805;28;97570;-67
2023/06/21 11:28:19;;;;;;;12.48;7.38;;;;;;;34.92;35.86;100095.41;30487346;28;97333;-67
2023/06/21 11:43:21;;;;;;;9.20;6.80;;;;;;;35.49;35.15;100095.94;30487987;28;96771;-66
2023/06/21 11:58:23;;;;;;;10.07;7.77;;;;;;;35.24;34.52;100092.22;30486770;28;97059;-66
2023/06/21 12:13:24;;;;;;;8.80;7.90;;;;;;;35.36;34.55;100077.66;30499436;28;96964;-67
2023/06/21 12:28:25;;;;;;;8.93;7.80;;;;;;;34.53;35.51;100066.22;30495222;28;97595;-66
2023/06/21 12:43:51;;;;;;;9.53;8.53;;;;;;;34.02;37.17;100072.50;30373283;28;97562;-68
2023/06/21 12:58:51;;;;;;;8.80;7.87;;;;;;;34.06;38.25;100080.91;30369608;28;96866;-66
2023/06/21 13:13:51;;;;;;;10.07;8.40;;;;;;;33.43;38.47;100075.06;30470302;28;106333;-66
2023/06/21 13:28:52;;;;;;;14.43;8.60;;;;;;;34.19;38.03;100063.31;30497590;28;97303;-69
2023/06/21 13:43:52;;;;;;;10.57;8.45;;;;;;;33.69;37.98;100050.94;30497042;28;103059;-69
2023/06/21 13:58:53;;;;;;;8.75;6.70;;;;;;;33.18;38.83;100047.16;30494894;28;100048;-70
2023/06/21 14:13:53;;;;;;;6.45;3.42;;;;;;;33.56;31.94;100046.47;30486991;28;96937;-69
2023/06/21 14:28:54;;;;;;;4.50;3.10;;;;;;;33.31;30.21;100045.38;30490964;28;96782;-69
2023/06/21 14:43:54;;;;;;;5.18;3.17;;;;;;;32.92;31.34;100045.22;30492266;28;96694;-69
2023/06/21 14:58:55;;;;;;;5.72;3.47;;;;;;;32.66;32.28;100037.72;30490731;28;104525;-69
2023/06/21 15:13:56;;;;;;;6.47;4.57;;;;;;;32.58;32.78;100041.25;30489141;28;96771;-70
2023/06/21 15:28:56;;;;;;;7.75;5.10;;;;;;;32.70;33.01;100044.22;30487560;28;97343;-69
2023/06/21 15:43:56;;;;;;;6.35;4.55;;;;;;;32.70;32.79;100038.72;30493900;28;96790;-69
2023/06/21 15:58:57;;;;;;;7.57;4.20;;;;;;;32.90;32.61;100047.47;30506016;28;97104;-69
2023/06/21 16:13:58;;;;;;;8.60;7.30;;;;;;;30.68;42.10;100067.00;30502616;28;97415;-70
2023/06/21 16:28:58;;;;;;;6.57;5.32;;;;;;;30.15;43.33;100068.34;30502140;28;110284;-69
2023/06/21 16:43:58;;;;;;;8.10;5.85;;;;;;;29.96;42.43;100062.94;30483542;28;96828;-68
2023/06/21 16:58:59;;;;;;;6.80;6.10;;;;;;;29.76;43.49;100077.00;30499998;28;96812;-69
2023/06/21 17:14:02;;;;;;;7.53;5.78;;;;;;;29.53;44.44;100099.63;30497796;28;97497;-69
2023/06/21 17:29:02;;;;;;;7.77;5.63;;;;;;;29.45;45.16;100080.31;30495411;28;96749;-70
2023/06/21 17:44:03;;;;;;;9.63;6.65;;;;;;;28.87;46.35;100066.59;30494457;28;111594;-69
2023/06/21 17:59:04;;;;;;;10.82;6.38;;;;;;;28.40;48.22;100072.97;30495915;28;96591;-69
2023/06/21 18:14:05;;;;;;;11.05;6.28;;;;;;;28.02;49.35;100085.44;30494874;28;96845;-68
2023/06/21 18:29:06;;;;;;;9.63;6.40;;;;;;;27.46;51.34;100094.09;30494457;28;96775;-68
2023/06/21 18:44:06;;;;;;;8.48;6.55;;;;;;;26.64;54.34;100100.81;30492491;28;111309;-69
2023/06/21 18:59:07;;;;;;;18.17;13.15;;;;;;;26.09;56.53;100098.81;30492246;28;96953;-69
2023/06/21 19:14:09;;;;;;;35.77;18.73;;;;;;;25.78;57.94;100128.00;30491565;28;97380;-68
2023/06/21 19:29:10;;;;;;;9.77;7.10;;;;;;;25.72;58.25;100134.59;30510424;28;97318;-68
2023/06/21 19:44:10;;;;;;;10.35;8.10;;;;;;;25.57;57.87;100173.56;30510280;28;97517;-69
2023/06/21 19:59:11;;;;;;;10.90;6.93;;;;;;;25.38;57.99;100201.34;30507507;28;96698;-69
2023/06/21 20:14:12;;;;;;;9.43;7.70;;;;;;;25.18;57.21;100230.16;30505956;28;97509;-69
2023/06/21 20:29:12;;;;;;;14.20;9.10;;;;;;;24.92;56.87;100252.91;30505151;28;96802;-69
2023/06/21 20:44:14;;;;;;;10.00;8.95;;;;;;;24.63;57.53;100284.09;30503445;28;97481;-69
2023/06/21 20:59:15;;;;;;;11.73;10.53;;;;;;;24.35;58.97;100289.84;30503088;28;96782;-69
2023/06/21 21:14:17;;;;;;;12.73;10.90;;;;;;;24.09;60.02;100289.63;30501690;28;96859;-69
2023/06/21 21:29:17;;;;;;;13.23;10.80;;;;;;;23.90;60.96;100295.41;30500365;28;96822;-69
2023/06/21 21:44:20;;;;;;;13.50;11.63;;;;;;;23.76;61.64;100294.97;30498978;28;96896;-70
2023/06/21 21:59:21;;;;;;;14.00;11.90;;;;;;;23.57;62.39;100302.63;30499405;28;97025;-70
2023/06/21 22:14:21;;;;;;;22.30;13.70;;;;;;;23.42;63.30;100310.63;30496127;28;110153;-69
2023/06/21 22:29:23;;;;;;;16.47;12.97;;;;;;;23.31;64.02;100324.06;30495759;28;96743;-69
2023/06/21 22:44:24;;;;;;;45.07;21.63;;;;;;;23.27;64.53;100324.84;30494495;28;96690;-69
2023/06/21 22:59:25;;;;;;;24.20;13.88;;;;;;;23.24;64.68;100334.31;30493603;28;96872;-68
2023/06/21 23:14:25;;;;;;;19.83;11.80;;;;;;;23.27;64.58;100357.44;30491750;28;97854;-69
2023/06/21 23:29:25;;;;;;;25.10;14.70;;;;;;;23.27;64.34;100347.38;30491400;28;96744;-68
2023/06/21 23:44:26;;;;;;;20.52;12.57;;;;;;;23.23;64.54;100359.84;30489463;28;97548;-68
2023/06/21 23:59:26;;;;;;;13.25;10.85;;;;;;;23.22;64.62;100377.19;30489782;28;97284;-68
